Terminal Aerodrome Forecast
Issued by NWS

Home | Current Version | Previous Version | Text Only | Print | Product List | Glossary On
Versions: 1 2 3 4 5 6 7 8 9 10 11 12 13 14 15 16
000
FTUS43 KDVN 221700
TAFBRL
TAF
KBRL 221720Z 2218/2318 15009KT P6SM SKC
     FM230000 14006KT P6SM SKC
     FM230600 16007KT P6SM SCT080
     FM231200 17007KT P6SM BKN060
     FM231500 18009KT P6SM VCSH OVC060=

USA.gov is the U.S. government's official web portal to all federal, state and local government web resources and services.